Latest Weather Observations for Lucas Heights

IDN60801

Issued at 9:32 pm EDT Monday 20 February 2017 (issued every 30 minutes, with the page automatically refreshed every 10 minutes)

About weather observations | Map of weather stations | Latest weather observations for NSW | Other Formats
Station Details ID: 066023 Name: LUCAS HEIGHTS AWS Lat: -34.05 Lon: 150.98 Height: 140.0 m
Data from the previous 72 hours. | See also: Recent months for locations in New South Wales
Date/Time
EDT
Temp
°C
App
Temp
°C
Dew
Point
°C
Rel
Hum
%
Delta-T
°C
Wind Press
QNH
hPa
Press
MSL
hPa
Rain since
9am
mm
Dir  Spd
km/h
Gust
km/h
Spd
kts
Gust
kts
20/09:15pm 19.4 17.4 7.1 44 6.3 ENE 7 11 4 6 1014.6 - 0.0
20/09:00pm 19.7 17.7 7.0 43 6.5 NE 7 11 4 6 1014.3 - 0.0
20/08:45pm 19.8 17.7 6.7 42 6.6 ENE 7 13 4 7 1013.9 - 0.0
20/08:30pm 20.2 17.7 6.5 41 6.9 ENE 9 15 5 8 1013.6 - 0.0
20/08:15pm 21.1 18.1 6.1 37 7.6 ENE 11 15 6 8 1013.2 - 0.0
20/08:00pm 21.8 19.5 5.6 35 8.1 ENE 7 13 4 7 1012.8 - 0.0
20/07:45pm 22.2 19.9 5.5 33 8.4 ENE 7 15 4 8 1012.3 - 0.0
20/07:30pm 22.8 20.4 5.2 32 8.8 ENE 7 15 4 8 1012.0 - 0.0
20/07:15pm 24.5 21.4 1.5 22 10.9 E 7 11 4 6 1011.6 - 0.0
20/07:00pm 25.7 21.0 -4.9 13 13.0 SSW 11 17 6 9 1011.1 - 0.0
20/06:45pm 26.0 20.9 -4.8 13 13.2 SW 13 20 7 11 1010.9 - 0.0
20/06:30pm 26.4 21.3 -4.8 12 13.4 SW 13 26 7 14 1010.6 - 0.0
20/06:15pm 26.4 21.4 -4.4 13 13.3 SW 13 24 7 13 1010.5 - 0.0
20/06:00pm 26.5 20.7 -4.3 13 13.3 WSW 17 28 9 15 1010.3 - 0.0
20/05:45pm 26.4 21.0 -4.6 12 13.3 SW 15 20 8 11 1010.1 - 0.0
20/05:30pm 26.6 21.2 -4.9 12 13.5 WSW 15 24 8 13 1010.0 - 0.0
20/05:15pm 26.7 21.6 -4.9 12 13.6 SW 13 24 7 13 1009.9 - 0.0
20/05:00pm 26.6 20.8 -4.7 12 13.5 WSW 17 26 9 14 1009.8 - 0.0
20/04:45pm 26.4 20.8 -6.0 11 13.6 SW 15 24 8 13 1009.7 - 0.0
20/04:30pm 26.2 20.3 -5.4 12 13.4 WSW 17 28 9 15 1009.6 - 0.0
20/04:15pm 26.4 21.0 -4.7 12 13.4 WSW 15 30 8 16 1009.6 - 0.0
20/04:00pm 26.0 20.5 -5.2 12 13.2 W 15 37 8 20 1009.6 - 0.0
20/03:45pm 26.1 19.9 -4.9 12 13.2 WSW 19 26 10 14 1009.7 - 0.0
20/03:30pm 26.0 19.6 -5.0 12 13.2 SW 20 32 11 17 1009.7 - 0.0
20/03:15pm 25.6 20.1 -5.0 13 13.0 W 15 30 8 16 1009.7 - 0.0
20/03:00pm 25.6 19.4 -4.8 13 12.9 WSW 19 28 10 15 1009.7 - 0.0
20/02:45pm 25.4 19.0 -4.9 13 12.9 WSW 20 35 11 19 1009.8 - 0.0
20/02:30pm 25.2 19.1 -4.3 14 12.6 WSW 19 32 10 17 1009.8 - 0.0
20/02:15pm 24.6 17.8 -5.4 13 12.5 W 22 39 12 21 1009.9 - 0.0
20/02:00pm 24.6 17.5 -4.6 14 12.4 WSW 24 39 13 21 1009.9 - 0.0
20/01:45pm 24.1 16.7 -3.5 16 11.9 W 26 39 14 21 1010.0 - 0.0
20/01:30pm 23.8 16.3 -4.3 15 11.9 W 26 39 14 21 1010.1 - 0.0
20/01:15pm 23.5 15.6 -4.4 15 11.7 W 28 39 15 21 1010.4 - 0.0
20/01:00pm 23.3 15.5 -3.4 16 11.4 W 28 39 15 21 1010.4 - 0.0
20/12:45pm 23.1 17.0 -2.5 18 11.1 WSW 20 33 11 18 1010.5 - 0.0
20/12:30pm 22.9 16.9 -1.6 19 10.8 WSW 20 39 11 21 1010.6 - 0.0
20/12:15pm 22.4 16.4 -1.3 20 10.5 WSW 20 33 11 18 1010.6 - 0.0
20/12:00pm 22.0 15.7 -0.7 22 10.1 W 22 35 12 19 1010.6 - 0.0
20/11:45am 21.9 15.3 -0.1 23 9.9 W 24 39 13 21 1010.5 - 0.0
20/11:30am 21.2 13.0 -0.7 23 9.7 WSW 32 44 17 24 1010.5 - 0.0
20/11:15am 20.9 12.7 -0.9 23 9.6 WSW 32 43 17 23 1010.6 - 0.0
20/11:00am 20.7 12.6 -0.4 24 9.4 W 32 48 17 26 1010.6 - 0.0
20/10:45am 20.2 12.5 0.0 26 9.0 W 30 48 16 26 1010.8 - 0.0
20/10:30am 19.8 10.8 0.1 26 8.8 W 37 50 20 27 1010.7 - 0.0
20/10:15am 19.5 10.5 0.1 27 8.6 W 37 48 20 26 1010.6 - 0.0
20/10:00am 19.1 10.2 1.0 29 8.2 WSW 37 50 20 27 1010.6 - 0.0
20/09:45am 18.8 10.0 1.6 31 7.8 W 37 54 20 29 1010.5 - 0.0
20/09:30am 18.6 10.6 1.9 32 7.6 W 33 48 18 26 1010.6 - 0.0
20/09:15am 18.1 10.4 2.1 34 7.3 W 32 44 17 24 1010.8 - 0.0
20/09:00am 18.1 10.9 2.8 36 7.1 W 30 43 16 23 1010.8 - 0.0
20/08:45am 17.9 12.0 4.1 40 6.6 W 24 35 13 19 1010.9 - 0.0
20/08:30am 17.8 13.9 5.5 44 6.0 W 15 22 8 12 1011.0 - 0.0
20/08:15am 17.3 13.9 5.7 46 5.7 W 13 22 7 12 1010.8 - 0.0
20/08:00am 17.1 13.7 5.7 47 5.6 W 13 24 7 13 1010.8 - 0.0
20/07:45am 17.0 13.5 5.5 46 5.6 W 13 19 7 10 1010.7 - 0.0
20/07:30am 16.8 12.0 5.6 47 5.4 W 20 35 11 19 1010.5 - 0.0
20/07:15am 16.3 11.2 6.1 51 5.0 WSW 22 35 12 19 1010.4 - 0.0
20/07:00am 15.8 11.3 5.9 51 4.8 WSW 19 30 10 16 1010.2 - 0.0
20/06:45am 16.0 14.2 5.5 49 5.1 W 4 7 2 4 1010.0 - 0.0
20/06:30am 16.2 13.5 5.6 49 5.1 W 9 22 5 12 1009.8 - 0.0
20/06:15am 15.6 10.9 5.3 50 4.9 WSW 19 26 10 14 1009.7 - 0.0
20/06:00am 15.7 10.0 4.9 48 5.1 WSW 24 37 13 20 1009.2 - 0.0
20/05:45am 16.3 13.0 4.3 45 5.7 SW 11 24 6 13 1008.9 - 0.0
20/05:30am 16.8 11.4 4.4 43 5.9 WSW 22 32 12 17 1008.8 - 0.0
20/05:15am 16.6 11.6 4.4 44 5.8 WSW 20 32 11 17 1008.6 - 0.0
20/05:00am 16.3 11.5 4.5 45 5.6 WSW 19 30 10 16 1008.5 - 0.0
20/04:45am 16.8 12.6 3.8 42 6.1 WSW 15 22 8 12 1008.2 - 0.0
20/04:30am 17.3 12.7 3.9 41 6.3 WSW 17 30 9 16 1008.1 - 0.0
20/04:15am 17.3 11.8 3.9 41 6.3 WSW 22 35 12 19 1008.0 - 0.0
20/04:00am 17.3 11.5 4.4 42 6.1 WSW 24 33 13 18 1007.8 - 0.0
20/03:45am 16.7 9.8 4.4 44 5.8 WSW 30 35 16 19 1007.5 - 0.0
20/03:30am 16.4 12.0 4.9 46 5.5 WSW 17 28 9 15 1007.3 - 0.0
20/03:15am 16.8 13.6 5.2 46 5.6 WSW 11 19 6 10 1007.2 - 0.0
20/03:00am 17.4 14.2 5.1 44 5.9 WSW 11 20 6 11 1007.1 - 0.0
20/02:45am 17.6 11.7 5.6 45 5.9 WSW 26 35 14 19 1006.9 - 0.0
20/02:30am 17.2 12.3 6.9 50 5.2 WSW 22 35 12 19 1006.7 - 0.0
20/02:15am 17.3 12.7 8.1 54 4.7 WSW 22 26 12 14 1006.7 - 0.0
20/02:00am 17.5 13.4 8.6 56 4.6 WSW 20 28 11 15 1006.7 - 0.0
20/01:45am 18.0 13.9 8.8 55 4.8 WSW 20 28 11 15 1006.8 - 0.0
20/01:30am 18.2 14.4 8.9 54 4.9 WSW 19 26 10 14 1006.7 - 0.0
20/01:15am 18.7 14.6 8.6 52 5.3 WSW 20 26 11 14 1006.7 - 0.0
20/01:00am 19.0 15.1 9.4 53 5.1 WSW 20 26 11 14 1006.7 - 0.0
20/12:45am 19.0 15.1 10.9 59 4.4 WSW 22 28 12 15 1006.8 - 0.0
20/12:30am 18.3 15.8 14.2 77 2.4 SW 20 30 11 16 1006.8 - 0.0
20/12:15am 17.1 15.5 14.0 82 1.8 SW 15 24 8 13 1006.9 - 0.0
20/12:00am 17.0 16.1 13.7 81 1.9 SSW 11 15 6 8 1007.0 - 0.0
 
Date/Time
EDT
Temp
°C
App
Temp
°C
Dew
Point
°C
Rel
Hum
%
Delta-T
°C
Wind Press
QNH
hPa
Press
MSL
hPa
Rain since
9am
mm
Dir  Spd
km/h
Gust
km/h
Spd
kts
Gust
kts
19/11:45pm 16.9 15.5 13.4 80 2.0 SSW 13 15 7 8 1006.9 - 0.0
19/11:30pm 16.9 15.7 12.9 77 2.2 S 11 15 6 8 1006.6 - 0.0
19/11:15pm 17.2 15.6 12.7 75 2.5 S 13 15 7 8 1006.9 - 0.0
19/11:00pm 17.3 16.0 12.4 73 2.7 S 11 19 6 10 1006.9 - 0.0
19/10:45pm 17.4 15.9 11.9 70 3.0 SSW 11 17 6 9 1007.1 - 0.0
19/10:30pm 17.8 16.2 11.6 67 3.4 SSW 11 13 6 7 1007.1 - 0.0
19/10:15pm 18.2 16.2 11.6 65 3.6 SW 13 15 7 8 1006.7 - 0.0
19/10:00pm 18.4 16.8 11.6 64 3.8 SSW 11 17 6 9 1006.4 - 0.0
19/09:45pm 18.6 16.6 11.5 63 3.9 SSW 13 20 7 11 1006.0 - 0.0
19/09:30pm 18.9 16.3 11.9 64 3.9 SSW 17 20 9 11 1005.9 - 0.0
19/09:15pm 18.7 16.3 12.7 68 3.4 SSW 17 22 9 12 1006.1 - 0.0
19/09:00pm 19.3 16.2 13.3 68 3.4 SSW 22 39 12 21 1006.5 - 0.0
19/08:45pm 21.1 21.4 17.0 77 2.5 SSW 11 39 6 21 1006.5 - 0.0
19/08:30pm 21.2 22.3 17.2 78 2.5 SE 7 7 4 4 1006.0 - 0.0
19/08:15pm 21.4 22.5 17.2 77 2.6 E 7 13 4 7 1005.8 - 0.0
19/08:00pm 21.6 22.3 17.1 75 2.8 E 9 17 5 9 1005.7 - 0.0
19/07:45pm 21.7 22.0 17.1 75 2.8 E 11 17 6 9 1005.8 - 0.0
19/07:30pm 21.8 21.8 17.1 74 2.9 E 13 20 7 11 1005.6 - 0.0
19/07:15pm 21.9 20.5 17.1 74 3.0 E 20 28 11 15 1005.4 - 0.0
19/07:00pm 22.3 20.9 17.1 72 3.2 E 20 33 11 18 1005.4 - 0.0
19/06:45pm 22.3 20.7 16.6 70 3.5 E 20 26 11 14 1005.2 - 0.0
19/06:30pm 22.8 21.4 16.6 68 3.8 E 19 26 10 14 1005.1 - 0.0
19/06:15pm 22.5 21.4 16.4 68 3.7 E 17 26 9 14 1005.1 - 0.0
19/06:00pm 23.0 21.5 16.7 67 3.9 E 20 26 11 14 1004.9 - 0.0
19/05:45pm 23.4 21.7 16.3 64 4.3 E 20 30 11 16 1004.7 - 0.0
19/05:30pm 23.4 21.9 16.2 64 4.4 E 19 30 10 16 1004.7 - 0.0
19/05:15pm 23.5 22.3 16.0 62 4.6 E 17 24 9 13 1004.7 - 0.0
19/05:00pm 23.5 21.5 15.5 60 4.8 ESE 20 32 11 17 1004.7 - 0.0
19/04:45pm 23.8 21.9 15.1 58 5.2 ESE 19 28 10 15 1004.8 - 0.0
19/04:30pm 23.9 21.7 14.9 57 5.4 E 20 30 11 16 1004.9 - 0.0
19/04:15pm 24.5 22.5 15.0 55 5.7 E 19 28 10 15 1004.9 - 0.0
19/04:00pm 24.8 23.3 15.2 55 5.8 E 17 26 9 14 1004.9 - 0.0
19/03:45pm 24.3 22.7 14.9 55 5.6 ESE 17 28 9 15 1005.0 - 0.0
19/03:30pm 24.6 24.2 15.1 55 5.7 ENE 11 26 6 14 1005.3 - 0.0
19/03:15pm 24.7 23.7 15.5 56 5.6 E 15 22 8 12 1005.6 - 0.0
19/03:00pm 24.5 23.8 15.4 57 5.5 E 13 22 7 12 1005.7 - 0.0
19/02:45pm 24.6 23.6 15.6 57 5.5 E 15 24 8 13 1005.7 - 0.0
19/02:30pm 24.5 23.6 14.9 55 5.8 E 13 26 7 14 1005.9 - 0.0
19/02:15pm 24.7 23.6 15.3 56 5.7 E 15 24 8 13 1006.1 - 0.0
19/02:00pm 25.1 24.6 13.9 49 6.6 NE 9 26 5 14 1006.4 - 0.0
19/01:45pm 24.6 23.0 12.8 47 6.9 NNE 13 20 7 11 1006.7 - 0.0
19/01:30pm 24.6 25.0 13.6 50 6.5 NE 4 13 2 7 1006.8 - 0.0
19/01:15pm 24.0 23.9 14.0 53 5.9 ENE 7 15 4 8 1006.9 - 0.0
19/01:00pm 23.6 23.8 14.2 55 5.6 ESE 6 13 3 7 1007.1 - 0.0
19/12:45pm 22.9 23.5 14.2 58 5.1 SSE 4 9 2 5 1007.4 - 0.0
19/12:30pm 22.7 23.2 13.9 57 5.2 NE 4 7 2 4 1007.8 - 0.0
19/12:15pm 22.7 22.9 14.2 58 5.0 SSW 6 13 3 7 1008.0 - 0.0
19/12:00pm 22.3 22.5 14.3 60 4.7 SSW 6 11 3 6 1008.3 - 0.0
19/11:45am 21.9 21.5 14.1 61 4.6 SW 9 15 5 8 1008.5 - 0.0
19/11:30am 21.9 22.2 14.9 64 4.2 SSW 7 15 4 8 1008.7 - 0.0
19/11:15am 21.4 22.2 14.8 66 3.9 SSW 4 7 2 4 1008.8 - 0.0
19/11:00am 21.1 21.0 15.0 68 3.6 SW 9 17 5 9 1008.8 - 0.0
19/10:45am 20.8 20.7 15.0 69 3.4 SW 9 15 5 8 1008.7 - 0.0
19/10:30am 20.6 20.5 15.0 70 3.3 S 9 15 5 8 1008.6 - 0.0
19/10:15am 20.2 19.7 15.0 72 3.1 SSW 11 15 6 8 1008.9 - 0.0
19/10:00am 19.9 19.5 15.1 74 2.8 SW 11 19 6 10 1008.8 - 0.0
19/09:45am 19.5 19.0 14.8 74 2.8 SSW 11 17 6 9 1008.7 - 0.0
19/09:30am 19.5 19.1 15.3 76 2.5 SSW 11 20 6 11 1008.6 - 0.0
19/09:15am 18.6 17.7 14.8 78 2.2 SW 13 17 7 9 1008.9 - 0.0
19/09:00am 18.4 18.2 14.6 78 2.2 SW 9 15 5 8 1009.0 - 1.6
19/08:45am 18.3 18.1 14.7 79 2.1 SSW 9 17 5 9 1008.7 - 1.6
19/08:30am 17.9 17.2 14.4 80 2.0 SSW 11 19 6 10 1008.6 - 1.6
19/08:15am 17.7 17.0 14.3 80 2.0 SSW 11 19 6 10 1008.5 - 1.6
19/08:00am 17.5 16.4 14.2 81 1.9 SSW 13 22 7 12 1008.6 - 1.6
19/07:45am 17.5 15.6 14.1 80 2.0 SSW 17 24 9 13 1008.5 - 1.6
19/07:30am 17.3 15.8 14.2 82 1.8 SSW 15 24 8 13 1008.3 - 1.6
19/07:15am 16.8 14.8 14.0 83 1.6 S 17 28 9 15 1008.3 - 1.6
19/07:00am 16.6 15.0 13.9 84 1.5 S 15 24 8 13 1008.2 - 1.6
19/06:45am 16.6 14.6 13.9 84 1.5 S 17 26 9 14 1007.8 - 1.6
19/06:30am 16.7 14.4 14.1 85 1.5 S 19 28 10 15 1007.7 - 1.6
19/06:15am 16.7 14.8 14.2 85 1.4 S 17 26 9 14 1007.5 - 1.6
19/06:00am 16.8 15.3 14.3 85 1.4 S 15 20 8 11 1007.4 - 1.6
19/05:45am 17.0 15.2 14.5 85 1.4 S 17 26 9 14 1007.1 - 1.6
19/05:30am 17.0 15.3 14.6 86 1.4 SSE 17 26 9 14 1006.9 - 1.6
19/05:15am 17.0 14.8 14.5 85 1.4 S 19 30 10 16 1006.7 - 1.6
19/05:00am 17.2 15.1 14.7 85 1.5 S 19 30 10 16 1006.7 - 1.6
19/04:45am 17.3 15.3 14.9 86 1.4 S 19 28 10 15 1006.6 - 1.6
19/04:30am 17.5 15.4 15.1 86 1.4 S 20 35 11 19 1006.7 - 1.6
19/04:15am 17.7 16.6 15.4 86 1.4 S 15 26 8 14 1006.8 - 1.6
19/04:00am 17.9 15.9 15.5 86 1.4 SSE 20 35 11 19 1006.7 - 1.6
19/03:45am 18.0 15.0 15.8 87 1.3 SSE 26 41 14 22 1006.3 - 1.6
19/03:30am 18.4 15.5 16.2 87 1.3 SSE 26 33 14 18 1006.3 - 1.6
19/03:15am 18.6 16.2 16.5 87 1.3 SSE 24 39 13 21 1006.2 - 1.6
19/03:00am 18.7 17.2 16.7 88 1.2 SSE 20 35 11 19 1006.1 - 1.6
19/02:45am 18.8 17.5 16.8 88 1.2 SSE 19 24 10 13 1006.0 - 1.6
19/02:30am 19.0 17.8 17.0 88 1.2 SSE 19 24 10 13 1006.0 - 1.6
19/02:15am 19.1 18.0 17.2 89 1.2 SSE 19 26 10 14 1006.1 - 1.6
19/02:00am 19.1 17.8 17.3 89 1.1 SSE 20 30 11 16 1006.2 - 1.6
19/01:45am 19.2 18.5 17.4 89 1.1 SSE 17 24 9 13 1006.3 - 1.6
19/01:30am 19.2 18.1 17.4 89 1.1 SSE 19 26 10 14 1006.4 - 1.6
19/01:15am 19.1 17.8 17.3 89 1.1 SSE 20 28 11 15 1006.4 - 1.6
19/01:00am 19.5 18.6 17.8 90 1.1 SSE 19 24 10 13 1006.3 - 1.6
19/12:45am 19.7 19.3 18.1 90 1.0 SSE 17 24 9 13 1006.4 - 1.6
19/12:30am 19.9 20.4 18.3 90 1.0 S 13 24 7 13 1006.4 - 1.6
19/12:15am 20.2 20.8 18.6 90 1.0 SSE 13 19 7 10 1006.4 - 1.6
19/12:00am 20.2 21.2 18.6 90 1.0 SSE 11 17 6 9 1006.6 - 1.6
 
Date/Time
EDT
Temp
°C
App
Temp
°C
Dew
Point
°C
Rel
Hum
%
Delta-T
°C
Wind Press
QNH
hPa
Press
MSL
hPa
Rain since
9am
mm
Dir  Spd
km/h
Gust
km/h
Spd
kts
Gust
kts
18/11:45pm 20.1 21.0 18.5 90 1.0 S 11 17 6 9 1006.6 - 1.6
18/11:30pm 20.2 21.1 18.5 90 1.1 S 11 17 6 9 1006.4 - 1.6
18/11:15pm 20.2 21.5 18.5 90 1.1 SSE 9 15 5 8 1006.7 - 1.6
18/11:00pm 20.2 21.9 18.5 90 1.1 S 7 11 4 6 1006.9 - 1.4
18/10:45pm 20.3 23.0 18.6 90 1.1 SSW 2 7 1 4 1007.2 - 1.4
18/10:30pm 20.2 22.5 18.5 90 1.1 S 4 7 2 4 1007.1 - 1.4
18/10:15pm 20.2 20.7 18.4 89 1.1 S 13 20 7 11 1007.0 - 1.4
18/10:00pm 20.2 19.5 18.2 88 1.2 SSE 19 28 10 15 1006.7 - 1.4
18/09:45pm 20.5 20.3 18.4 88 1.3 S 17 24 9 13 1006.9 - 1.4
18/09:30pm 20.6 20.4 18.4 87 1.4 SSE 17 28 9 15 1006.3 - 1.1
18/09:15pm 20.6 19.8 18.4 87 1.4 SSE 20 30 11 16 1006.1 - 1.1
18/09:00pm 20.6 20.0 18.4 87 1.4 SSE 19 26 10 14 1006.1 - 1.1
18/08:45pm 20.4 19.7 18.2 87 1.4 SSE 19 26 10 14 1005.9 - 1.1
18/08:30pm 20.4 19.7 18.2 87 1.4 SSE 19 30 10 16 1005.9 - 1.1
18/08:15pm 20.1 19.1 18.0 88 1.3 SSE 20 32 11 17 1005.7 - 1.1
18/08:00pm 20.0 19.0 18.0 88 1.2 S 20 26 11 14 1005.6 - 1.1
18/07:45pm 19.9 18.9 18.0 89 1.2 SSE 20 32 11 17 1005.6 - 0.9
18/07:30pm 19.8 18.8 17.9 89 1.2 SSE 20 26 11 14 1005.6 - 0.9
18/07:15pm 19.8 18.8 17.9 89 1.2 SSE 20 30 11 16 1005.6 - 0.9
18/07:00pm 19.8 18.8 17.9 89 1.2 SSE 20 30 11 16 1005.7 - 0.9
18/06:45pm 19.7 17.4 17.5 87 1.4 SSE 26 35 14 19 1005.5 - 0.7
18/06:30pm 20.1 18.1 17.5 85 1.6 SSE 24 33 13 18 1006.0 - 0.7
18/06:15pm 20.2 18.2 17.5 84 1.7 SSE 24 33 13 18 1005.6 - 0.4
18/06:00pm 20.6 18.3 17.5 82 1.9 SE 26 37 14 20 1005.7 - 0.4
18/05:45pm 22.0 19.1 17.9 77 2.6 SE 30 46 16 25 1004.8 - 0.4
18/05:30pm 22.9 22.9 18.9 78 2.5 SE 17 30 9 16 1004.5 - 0.4
18/05:15pm 22.3 21.7 18.5 79 2.4 SSE 19 30 10 16 1004.3 - 0.4
18/05:00pm 22.2 22.2 18.9 81 2.1 SSE 17 26 9 14 1004.8 - 0.4
18/04:45pm 22.6 22.2 19.4 82 2.1 SSE 20 32 11 17 1005.0 - 0.4
18/04:30pm 23.6 23.9 20.3 82 2.2 SE 19 32 10 17 1004.4 - 0.4
18/04:15pm 23.3 23.3 20.1 82 2.1 ESE 20 30 11 16 1004.0 - 0.4
18/04:00pm 23.6 22.7 19.1 76 2.9 ESE 22 32 12 17 1004.0 - 0.2
18/03:45pm 24.3 22.9 18.8 71 3.5 ESE 24 32 13 17 1003.7 - 0.0
18/03:30pm 25.3 24.3 18.9 67 4.1 ESE 22 32 12 17 1003.4 - 0.0
18/03:15pm 25.7 24.6 18.7 65 4.5 ESE 22 32 12 17 1004.0 - 0.0
18/03:00pm 25.8 25.1 18.7 65 4.5 ESE 20 30 11 16 1004.3 - 0.0
18/02:45pm 25.9 25.5 18.8 65 4.6 SE 19 26 10 14 1004.8 - 0.0
18/02:30pm 25.8 24.9 19.0 66 4.4 ESE 22 32 12 17 1005.1 - 0.0
18/02:15pm 25.4 24.9 19.1 68 4.1 SE 20 30 11 16 1005.2 - 0.0
18/02:00pm 24.9 24.5 19.0 69 3.8 SE 19 30 10 16 1005.2 - 0.0
18/01:45pm 24.9 24.4 19.1 70 3.7 SE 20 32 11 17 1005.5 - 0.0
18/01:30pm 24.9 24.0 19.1 70 3.7 SE 22 32 12 17 1005.7 - 0.0
18/01:15pm 25.6 25.7 19.1 67 4.2 SE 17 28 9 15 1005.8 - 0.0
18/01:00pm 25.9 26.4 19.3 67 4.3 SE 15 24 8 13 1005.7 - 0.0
18/12:45pm 25.4 25.1 19.1 68 4.1 SE 19 30 10 16 1005.9 - 0.0
18/12:30pm 25.5 24.7 19.3 68 4.0 SE 22 30 12 16 1006.1 - 0.0
18/12:15pm 25.5 25.4 19.6 70 3.8 SSE 19 28 10 15 1006.2 - 0.0
18/12:00pm 25.1 25.1 19.7 72 3.5 SE 19 26 10 14 1006.2 - 0.0
18/11:45am 24.3 24.0 19.5 74 3.1 SE 20 30 11 16 1006.3 - 0.0
18/11:30am 23.9 23.2 19.5 76 2.8 SE 22 32 12 17 1006.4 - 0.0
18/11:15am 24.0 23.3 19.5 76 2.9 SE 22 30 12 16 1006.7 - 0.0
18/11:00am 24.1 23.4 19.5 75 3.0 SE 22 30 12 16 1007.0 - 0.0
18/10:45am 24.1 23.6 19.9 77 2.7 SSE 22 30 12 16 1007.2 - 0.0
18/10:30am 23.6 23.3 19.5 78 2.6 SE 20 28 11 15 1007.1 - 0.0
18/10:15am 24.0 23.8 19.7 77 2.8 SSE 20 30 11 16 1006.9 - 0.0
18/10:00am 24.1 24.5 19.9 77 2.7 SE 17 26 9 14 1006.8 - 0.0
18/09:45am 23.8 25.0 19.9 79 2.5 SE 13 20 7 11 1006.7 - 0.0
18/09:30am 23.5 24.3 19.8 80 2.4 SE 15 20 8 11 1006.8 - 0.0
18/09:15am 23.3 24.0 19.7 80 2.3 ESE 15 20 8 11 1006.7 - 0.0
18/09:00am 22.8 23.5 19.7 83 2.0 ESE 15 20 8 11 1006.7 - 5.6
18/08:45am 22.2 23.6 19.6 85 1.7 SE 11 19 6 10 1006.6 - 5.6
18/08:30am 21.5 22.0 19.2 87 1.5 SSE 15 20 8 11 1006.5 - 5.6
18/08:15am 21.4 21.7 18.8 85 1.6 SSE 15 19 8 10 1006.3 - 5.6
18/08:00am 21.6 22.2 18.5 82 2.0 SSE 13 17 7 9 1006.0 - 5.6
18/07:45am 21.6 22.9 18.5 82 2.0 SE 9 11 5 6 1005.9 - 5.6
18/07:30am 21.3 23.0 18.4 83 1.8 S 7 9 4 5 1005.9 - 5.6
18/07:15am 21.2 22.4 18.3 83 1.8 SSW 9 15 5 8 1005.7 - 5.6
18/07:00am 21.0 21.0 18.1 83 1.8 SSW 15 19 8 10 1005.8 - 5.6
18/06:45am 21.5 21.5 18.2 81 2.1 SW 15 22 8 12 1005.4 - 5.6
18/06:30am 21.3 21.4 18.4 83 1.8 WNW 15 20 8 11 1004.8 - 5.6
18/06:15am 21.0 22.5 18.0 83 1.9 W 7 11 4 6 1004.5 - 5.6
18/06:00am 21.2 22.7 18.0 82 2.0 WSW 7 11 4 6 1004.5 - 5.6
18/05:45am 21.6 21.6 18.2 81 2.1 W 15 24 8 13 1004.8 - 5.6
18/05:30am 21.7 20.5 18.3 81 2.1 W 22 28 12 15 1004.9 - 5.6
18/05:15am 21.6 20.9 18.3 81 2.1 W 19 24 10 13 1004.9 - 5.6
18/05:00am 21.6 21.7 18.3 81 2.1 W 15 24 8 13 1005.0 - 5.6
18/04:45am 21.5 21.6 18.3 82 2.0 WNW 15 20 8 11 1005.2 - 5.6
18/04:30am 21.3 20.9 18.1 82 2.0 WNW 17 20 9 11 1005.4 - 5.6
18/04:15am 21.6 22.4 18.2 81 2.1 WNW 11 17 6 9 1005.6 - 5.6
18/04:00am 21.7 22.5 18.2 80 2.2 WNW 11 15 6 8 1005.6 - 5.6
18/03:45am 21.7 22.2 18.3 81 2.1 W 13 19 7 10 1006.1 - 5.6
18/03:30am 21.9 21.2 18.3 80 2.3 W 19 24 10 13 1006.3 - 5.6
18/03:15am 22.1 21.4 18.3 79 2.4 WNW 19 22 10 12 1006.1 - 5.6
18/03:00am 22.1 21.2 18.3 79 2.4 NW 20 24 11 13 1006.0 - 5.6
18/02:45am 22.2 21.4 18.4 79 2.4 NW 20 26 11 14 1006.2 - 5.6
18/02:30am 22.2 21.4 18.4 79 2.4 NW 20 30 11 16 1006.4 - 5.6
18/02:15am 22.2 21.5 18.6 80 2.3 WNW 20 28 11 15 1006.8 - 5.6
18/02:00am 22.1 21.6 18.6 80 2.2 WNW 19 24 10 13 1007.1 - 5.6
18/01:45am 22.1 21.4 18.6 80 2.2 NW 20 24 11 13 1007.2 - 5.6
18/01:30am 22.2 21.5 18.6 80 2.3 NW 20 24 11 13 1007.4 - 5.6
18/01:15am 22.1 21.3 18.5 80 2.3 NW 20 26 11 14 1007.7 - 5.6
18/01:00am 22.1 21.7 19.0 82 2.0 WNW 19 24 10 13 1008.1 - 5.6
18/12:45am 21.8 21.4 18.9 83 1.8 WNW 19 24 10 13 1008.3 - 5.6
18/12:30am 21.7 20.7 18.9 84 1.8 W 22 26 12 14 1008.5 - 5.6
18/12:15am 21.6 20.7 19.0 85 1.7 W 22 26 12 14 1008.5 - 5.6
18/12:00am 21.5 21.0 19.1 86 1.5 W 20 24 11 13 1008.7 - 5.6
 
Date/Time
EDT
Temp
°C
App
Temp
°C
Dew
Point
°C
Rel
Hum
%
Delta-T
°C
Wind Press
QNH
hPa
Press
MSL
hPa
Rain since
9am
mm
Dir  Spd
km/h
Gust
km/h
Spd
kts
Gust
kts
17/11:45pm 21.4 20.9 19.1 87 1.5 W 20 24 11 13 1008.9 - 5.6
17/11:30pm 21.5 21.1 19.3 87 1.4 W 20 22 11 12 1008.8 - 5.6
17/11:15pm 21.4 21.0 19.3 88 1.3 W 20 22 11 12 1008.9 - 5.6
17/11:00pm 21.4 21.9 19.2 87 1.4 W 15 20 8 11 1009.1 - 5.6
17/10:45pm 21.7 22.3 19.4 87 1.5 W 15 19 8 10 1009.2 - 5.6
17/10:30pm 21.9 22.9 19.4 86 1.6 W 13 17 7 9 1009.5 - 5.6
17/10:15pm 22.0 23.1 19.6 86 1.5 WNW 13 17 7 9 1009.5 - 5.6
17/10:00pm 21.6 22.1 19.2 86 1.5 NW 15 17 8 9 1009.4 - 5.6
17/09:45pm 21.5 21.9 19.0 86 1.6 NW 15 17 8 9 1009.3 - 5.6

Other Formats:

Comma delimited format used in spreadsheet applications
http://www.bom.gov.au/fwo/IDN60801/IDN60801.95757.axf

JavaScript Object Notation format (JSON) in row-major order
http://www.bom.gov.au/fwo/IDN60801/IDN60801.95757.json